sensor_id;sensor_type;location;lat;lon;timestamp;P1;durP1;ratioP1;P2;durP2;ratioP2
5710;SDS011;61291;52.524;13.422;2023-04-15T00:01:25;96.33;;;85.73;;
5710;SDS011;61291;52.524;13.422;2023-04-15T00:03:51;88.33;;;80.03;;
5710;SDS011;61291;52.524;13.422;2023-04-15T00:06:18;84.10;;;75.90;;
5710;SDS011;61291;52.524;13.422;2023-04-15T00:08:44;93.50;;;84.37;;
5710;SDS011;61291;52.524;13.422;2023-04-15T00:11:10;93.73;;;84.27;;
5710;SDS011;61291;52.524;13.422;2023-04-15T00:13:36;96.90;;;87.30;;
5710;SDS011;61291;52.524;13.422;2023-04-15T00:16:02;91.13;;;82.17;;
5710;SDS011;61291;52.524;13.422;2023-04-15T00:18:28;90.73;;;81.87;;
5710;SDS011;61291;52.524;13.422;2023-04-15T00:20:53;97.40;;;88.10;;
5710;SDS011;61291;52.524;13.422;2023-04-15T00:23:19;75.03;;;68.77;;
5710;SDS011;61291;52.524;13.422;2023-04-15T00:25:45;98.30;;;88.73;;
5710;SDS011;61291;52.524;13.422;2023-04-15T00:28:10;93.30;;;84.30;;
5710;SDS011;61291;52.524;13.422;2023-04-15T00:30:36;88.67;;;80.40;;
5710;SDS011;61291;52.524;13.422;2023-04-15T00:33:02;101.70;;;91.43;;
5710;SDS011;61291;52.524;13.422;2023-04-15T00:35:27;94.67;;;85.83;;
5710;SDS011;61291;52.524;13.422;2023-04-15T00:37:53;102.63;;;92.30;;
5710;SDS011;61291;52.524;13.422;2023-04-15T00:40:20;94.67;;;85.57;;
5710;SDS011;61291;52.524;13.422;2023-04-15T00:42:48;96.07;;;86.00;;
5710;SDS011;61291;52.524;13.422;2023-04-15T00:45:14;89.80;;;80.97;;
5710;SDS011;61291;52.524;13.422;2023-04-15T00:47:43;86.93;;;77.87;;
5710;SDS011;61291;52.524;13.422;2023-04-15T00:50:09;95.67;;;86.03;;
5710;SDS011;61291;52.524;13.422;2023-04-15T00:52:36;79.03;;;72.23;;
5710;SDS011;61291;52.524;13.422;2023-04-15T00:55:02;96.83;;;87.00;;
5710;SDS011;61291;52.524;13.422;2023-04-15T00:57:29;91.50;;;82.00;;
5710;SDS011;61291;52.524;13.422;2023-04-15T00:59:55;92.57;;;83.40;;
5710;SDS011;61291;52.524;13.422;2023-04-15T01:02:21;94.27;;;84.70;;
5710;SDS011;61291;52.524;13.422;2023-04-15T01:04:48;96.70;;;87.17;;
5710;SDS011;61291;52.524;13.422;2023-04-15T01:07:13;100.10;;;89.70;;
5710;SDS011;61291;52.524;13.422;2023-04-15T01:09:39;83.77;;;76.33;;
5710;SDS011;61291;52.524;13.422;2023-04-15T01:12:26;93.20;;;84.03;;
5710;SDS011;61291;52.524;13.422;2023-04-15T01:14:53;90.60;;;81.37;;
5710;SDS011;61291;52.524;13.422;2023-04-15T01:20:11;89.33;;;80.37;;
5710;SDS011;61291;52.524;13.422;2023-04-15T01:22:37;99.57;;;89.00;;
5710;SDS011;61291;52.524;13.422;2023-04-15T01:25:10;95.78;;;82.30;;
5710;SDS011;61291;52.524;13.422;2023-04-15T01:27:40;96.43;;;84.93;;
5710;SDS011;61291;52.524;13.422;2023-04-15T01:30:06;97.20;;;86.93;;
5710;SDS011;61291;52.524;13.422;2023-04-15T01:32:33;95.00;;;85.20;;
5710;SDS011;61291;52.524;13.422;2023-04-15T01:34:58;82.55;;;74.50;;
5710;SDS011;61291;52.524;13.422;2023-04-15T01:37:24;103.70;;;92.50;;
5710;SDS011;61291;52.524;13.422;2023-04-15T01:39:50;93.03;;;84.30;;
5710;SDS011;61291;52.524;13.422;2023-04-15T01:42:16;97.57;;;85.63;;
5710;SDS011;61291;52.524;13.422;2023-04-15T01:44:41;100.47;;;89.87;;
5710;SDS011;61291;52.524;13.422;2023-04-15T01:47:07;103.13;;;92.07;;
5710;SDS011;61291;52.524;13.422;2023-04-15T01:49:32;97.57;;;87.30;;
5710;SDS011;61291;52.524;13.422;2023-04-15T01:51:58;98.60;;;87.50;;
5710;SDS011;61291;52.524;13.422;2023-04-15T01:54:24;102.27;;;90.97;;
5710;SDS011;61291;52.524;13.422;2023-04-15T01:56:51;102.20;;;91.40;;
5710;SDS011;61291;52.524;13.422;2023-04-15T01:59:16;105.30;;;90.73;;
5710;SDS011;61291;52.524;13.422;2023-04-15T02:01:42;87.53;;;78.87;;
5710;SDS011;61291;52.524;13.422;2023-04-15T02:04:09;93.37;;;83.83;;
5710;SDS011;61291;52.524;13.422;2023-04-15T02:06:40;83.37;;;75.17;;
5710;SDS011;61291;52.524;13.422;2023-04-15T02:09:07;96.90;;;86.60;;
5710;SDS011;61291;52.524;13.422;2023-04-15T02:11:33;97.33;;;87.07;;
5710;SDS011;61291;52.524;13.422;2023-04-15T02:13:59;100.73;;;88.30;;
5710;SDS011;61291;52.524;13.422;2023-04-15T02:16:24;92.70;;;83.20;;
5710;SDS011;61291;52.524;13.422;2023-04-15T02:18:50;93.37;;;83.47;;
5710;SDS011;61291;52.524;13.422;2023-04-15T02:21:16;103.33;;;92.20;;
5710;SDS011;61291;52.524;13.422;2023-04-15T02:23:42;95.40;;;84.50;;
5710;SDS011;61291;52.524;13.422;2023-04-15T02:26:08;92.83;;;82.43;;
5710;SDS011;61291;52.524;13.422;2023-04-15T02:28:33;102.67;;;91.67;;
5710;SDS011;61291;52.524;13.422;2023-04-15T02:30:59;97.77;;;87.23;;
5710;SDS011;61291;52.524;13.422;2023-04-15T02:33:29;93.50;;;83.30;;
5710;SDS011;61291;52.524;13.422;2023-04-15T02:35:56;99.83;;;89.03;;
5710;SDS011;61291;52.524;13.422;2023-04-15T02:38:21;109.83;;;92.80;;
5710;SDS011;61291;52.524;13.422;2023-04-15T02:40:47;106.83;;;93.13;;
5710;SDS011;61291;52.524;13.422;2023-04-15T02:43:14;102.93;;;91.90;;
5710;SDS011;61291;52.524;13.422;2023-04-15T02:45:41;104.77;;;91.57;;
5710;SDS011;61291;52.524;13.422;2023-04-15T02:48:07;100.13;;;89.23;;
5710;SDS011;61291;52.524;13.422;2023-04-15T02:50:32;110.10;;;90.80;;
5710;SDS011;61291;52.524;13.422;2023-04-15T02:52:58;88.43;;;79.67;;
5710;SDS011;61291;52.524;13.422;2023-04-15T02:55:25;113.03;;;90.40;;
5710;SDS011;61291;52.524;13.422;2023-04-15T02:57:51;104.27;;;93.00;;
5710;SDS011;61291;52.524;13.422;2023-04-15T03:00:16;94.67;;;84.10;;
5710;SDS011;61291;52.524;13.422;2023-04-15T03:02:42;114.43;;;90.47;;
5710;SDS011;61291;52.524;13.422;2023-04-15T03:05:11;81.53;;;73.47;;
5710;SDS011;61291;52.524;13.422;2023-04-15T03:07:38;99.57;;;89.37;;
5710;SDS011;61291;52.524;13.422;2023-04-15T03:10:05;96.57;;;86.67;;
5710;SDS011;61291;52.524;13.422;2023-04-15T03:12:31;92.40;;;82.70;;
5710;SDS011;61291;52.524;13.422;2023-04-15T03:14:56;98.60;;;84.33;;
5710;SDS011;61291;52.524;13.422;2023-04-15T03:17:22;101.07;;;90.10;;
5710;SDS011;61291;52.524;13.422;2023-04-15T03:19:47;106.47;;;91.93;;
5710;SDS011;61291;52.524;13.422;2023-04-15T03:22:13;94.90;;;85.00;;
5710;SDS011;61291;52.524;13.422;2023-04-15T03:24:38;96.20;;;85.77;;
5710;SDS011;61291;52.524;13.422;2023-04-15T03:27:04;98.87;;;88.87;;
5710;SDS011;61291;52.524;13.422;2023-04-15T03:29:31;99.60;;;89.27;;
5710;SDS011;61291;52.524;13.422;2023-04-15T03:31:57;92.20;;;81.43;;
5710;SDS011;61291;52.524;13.422;2023-04-15T03:34:22;100.60;;;89.80;;
5710;SDS011;61291;52.524;13.422;2023-04-15T03:36:48;92.17;;;82.37;;
5710;SDS011;61291;52.524;13.422;2023-04-15T03:39:13;102.87;;;92.33;;
5710;SDS011;61291;52.524;13.422;2023-04-15T03:41:39;106.33;;;92.30;;
5710;SDS011;61291;52.524;13.422;2023-04-15T03:44:04;107.33;;;95.50;;
5710;SDS011;61291;52.524;13.422;2023-04-15T03:46:30;99.50;;;88.60;;
5710;SDS011;61291;52.524;13.422;2023-04-15T03:48:55;92.50;;;83.13;;
5710;SDS011;61291;52.524;13.422;2023-04-15T03:51:21;101.40;;;87.77;;
5710;SDS011;61291;52.524;13.422;2023-04-15T03:53:46;93.37;;;83.43;;
5710;SDS011;61291;52.524;13.422;2023-04-15T03:56:12;97.07;;;86.87;;
5710;SDS011;61291;52.524;13.422;2023-04-15T03:58:37;97.07;;;84.60;;
5710;SDS011;61291;52.524;13.422;2023-04-15T04:01:03;83.17;;;75.37;;
5710;SDS011;61291;52.524;13.422;2023-04-15T04:03:28;102.80;;;92.40;;
5710;SDS011;61291;52.524;13.422;2023-04-15T04:05:54;93.53;;;84.43;;
5710;SDS011;61291;52.524;13.422;2023-04-15T04:08:20;101.57;;;91.00;;
5710;SDS011;61291;52.524;13.422;2023-04-15T04:10:45;93.90;;;82.47;;
5710;SDS011;61291;52.524;13.422;2023-04-15T04:13:11;89.77;;;80.73;;
5710;SDS011;61291;52.524;13.422;2023-04-15T04:15:36;93.33;;;83.33;;
5710;SDS011;61291;52.524;13.422;2023-04-15T04:18:02;92.47;;;83.17;;
5710;SDS011;61291;52.524;13.422;2023-04-15T04:20:27;95.70;;;85.63;;
5710;SDS011;61291;52.524;13.422;2023-04-15T04:22:53;93.37;;;84.63;;
5710;SDS011;61291;52.524;13.422;2023-04-15T04:25:19;99.70;;;89.50;;
5710;SDS011;61291;52.524;13.422;2023-04-15T04:27:45;97.73;;;88.53;;
5710;SDS011;61291;52.524;13.422;2023-04-15T04:30:11;98.40;;;87.70;;
5710;SDS011;61291;52.524;13.422;2023-04-15T04:32:36;90.77;;;81.97;;
5710;SDS011;61291;52.524;13.422;2023-04-15T04:35:03;81.10;;;73.40;;
5710;SDS011;61291;52.524;13.422;2023-04-15T04:37:28;84.70;;;69.27;;
5710;SDS011;61291;52.524;13.422;2023-04-15T04:39:54;94.00;;;84.67;;
5710;SDS011;61291;52.524;13.422;2023-04-15T04:42:20;99.43;;;88.73;;
5710;SDS011;61291;52.524;13.422;2023-04-15T04:44:45;79.70;;;71.17;;
5710;SDS011;61291;52.524;13.422;2023-04-15T04:47:11;83.47;;;75.37;;
5710;SDS011;61291;52.524;13.422;2023-04-15T04:49:36;92.00;;;83.30;;
5710;SDS011;61291;52.524;13.422;2023-04-15T04:52:02;82.23;;;74.97;;
5710;SDS011;61291;52.524;13.422;2023-04-15T04:54:27;85.17;;;77.27;;
5710;SDS011;61291;52.524;13.422;2023-04-15T04:56:54;89.77;;;80.97;;
5710;SDS011;61291;52.524;13.422;2023-04-15T04:59:21;86.03;;;77.43;;
5710;SDS011;61291;52.524;13.422;2023-04-15T05:01:47;91.43;;;82.13;;
5710;SDS011;61291;52.524;13.422;2023-04-15T05:04:13;89.30;;;80.13;;
5710;SDS011;61291;52.524;13.422;2023-04-15T05:06:38;83.03;;;75.50;;
5710;SDS011;61291;52.524;13.422;2023-04-15T05:09:03;84.90;;;76.50;;
5710;SDS011;61291;52.524;13.422;2023-04-15T05:11:29;75.73;;;67.77;;
5710;SDS011;61291;52.524;13.422;2023-04-15T05:13:54;83.67;;;75.57;;
5710;SDS011;61291;52.524;13.422;2023-04-15T05:16:20;85.30;;;76.93;;
5710;SDS011;61291;52.524;13.422;2023-04-15T05:18:46;77.90;;;70.37;;
5710;SDS011;61291;52.524;13.422;2023-04-15T05:21:11;83.33;;;75.63;;
5710;SDS011;61291;52.524;13.422;2023-04-15T05:23:37;84.63;;;76.80;;
5710;SDS011;61291;52.524;13.422;2023-04-15T05:26:02;78.27;;;71.33;;
5710;SDS011;61291;52.524;13.422;2023-04-15T05:28:28;84.40;;;77.20;;
5710;SDS011;61291;52.524;13.422;2023-04-15T05:30:53;83.70;;;75.90;;
5710;SDS011;61291;52.524;13.422;2023-04-15T05:33:19;85.83;;;77.23;;
5710;SDS011;61291;52.524;13.422;2023-04-15T05:35:44;80.03;;;72.07;;
5710;SDS011;61291;52.524;13.422;2023-04-15T05:38:10;74.00;;;67.67;;
5710;SDS011;61291;52.524;13.422;2023-04-15T05:40:36;80.23;;;73.23;;
5710;SDS011;61291;52.524;13.422;2023-04-15T05:43:01;81.37;;;74.33;;
5710;SDS011;61291;52.524;13.422;2023-04-15T05:45:27;78.67;;;71.87;;
5710;SDS011;61291;52.524;13.422;2023-04-15T05:47:52;80.90;;;73.20;;
5710;SDS011;61291;52.524;13.422;2023-04-15T05:50:18;84.20;;;77.43;;
5710;SDS011;61291;52.524;13.422;2023-04-15T05:52:45;76.20;;;69.80;;
5710;SDS011;61291;52.524;13.422;2023-04-15T05:55:10;79.23;;;72.67;;
5710;SDS011;61291;52.524;13.422;2023-04-15T05:57:36;76.87;;;70.67;;
5710;SDS011;61291;52.524;13.422;2023-04-15T06:00:02;80.70;;;74.10;;
5710;SDS011;61291;52.524;13.422;2023-04-15T06:02:29;78.73;;;71.53;;
5710;SDS011;61291;52.524;13.422;2023-04-15T06:04:55;72.63;;;66.73;;
5710;SDS011;61291;52.524;13.422;2023-04-15T06:07:21;74.13;;;68.23;;
5710;SDS011;61291;52.524;13.422;2023-04-15T06:09:47;65.10;;;59.70;;
5710;SDS011;61291;52.524;13.422;2023-04-15T06:12:13;66.43;;;61.43;;
5710;SDS011;61291;52.524;13.422;2023-04-15T06:14:39;74.03;;;67.83;;
5710;SDS011;61291;52.524;13.422;2023-04-15T06:17:05;75.90;;;70.20;;
5710;SDS011;61291;52.524;13.422;2023-04-15T06:19:31;72.93;;;67.03;;
5710;SDS011;61291;52.524;13.422;2023-04-15T06:21:57;69.30;;;63.70;;
5710;SDS011;61291;52.524;13.422;2023-04-15T06:24:23;73.87;;;68.17;;
5710;SDS011;61291;52.524;13.422;2023-04-15T06:26:48;68.87;;;63.77;;
5710;SDS011;61291;52.524;13.422;2023-04-15T06:29:14;69.37;;;63.93;;
5710;SDS011;61291;52.524;13.422;2023-04-15T06:31:40;72.80;;;67.30;;
5710;SDS011;61291;52.524;13.422;2023-04-15T06:34:05;76.17;;;70.40;;
5710;SDS011;61291;52.524;13.422;2023-04-15T06:36:31;64.77;;;60.10;;
5710;SDS011;61291;52.524;13.422;2023-04-15T06:38:57;64.10;;;59.33;;
5710;SDS011;61291;52.524;13.422;2023-04-15T06:41:22;71.03;;;65.60;;
5710;SDS011;61291;52.524;13.422;2023-04-15T06:43:48;62.80;;;58.10;;
5710;SDS011;61291;52.524;13.422;2023-04-15T06:46:13;66.53;;;61.23;;
5710;SDS011;61291;52.524;13.422;2023-04-15T06:48:39;69.20;;;64.10;;
5710;SDS011;61291;52.524;13.422;2023-04-15T06:51:05;65.50;;;60.70;;
5710;SDS011;61291;52.524;13.422;2023-04-15T06:53:30;61.40;;;56.77;;
5710;SDS011;61291;52.524;13.422;2023-04-15T06:55:56;63.13;;;58.30;;
5710;SDS011;61291;52.524;13.422;2023-04-15T06:58:21;66.13;;;61.13;;
5710;SDS011;61291;52.524;13.422;2023-04-15T07:00:47;66.50;;;61.43;;
5710;SDS011;61291;52.524;13.422;2023-04-15T07:03:13;70.80;;;65.60;;
5710;SDS011;61291;52.524;13.422;2023-04-15T07:05:39;71.30;;;64.93;;
5710;SDS011;61291;52.524;13.422;2023-04-15T07:08:05;71.50;;;65.93;;
5710;SDS011;61291;52.524;13.422;2023-04-15T07:10:31;69.10;;;64.10;;
5710;SDS011;61291;52.524;13.422;2023-04-15T07:12:57;67.80;;;62.70;;
5710;SDS011;61291;52.524;13.422;2023-04-15T07:15:22;62.60;;;58.10;;
5710;SDS011;61291;52.524;13.422;2023-04-15T07:17:48;68.50;;;63.57;;
5710;SDS011;61291;52.524;13.422;2023-04-15T07:20:14;66.63;;;61.63;;
5710;SDS011;61291;52.524;13.422;2023-04-15T07:22:39;67.63;;;62.37;;
5710;SDS011;61291;52.524;13.422;2023-04-15T07:25:05;69.90;;;63.90;;
5710;SDS011;61291;52.524;13.422;2023-04-15T07:27:31;72.57;;;67.10;;
5710;SDS011;61291;52.524;13.422;2023-04-15T07:29:57;66.77;;;62.17;;
5710;SDS011;61291;52.524;13.422;2023-04-15T07:32:22;68.93;;;63.20;;
5710;SDS011;61291;52.524;13.422;2023-04-15T07:34:47;69.67;;;64.17;;
5710;SDS011;61291;52.524;13.422;2023-04-15T07:37:13;65.63;;;60.70;;
5710;SDS011;61291;52.524;13.422;2023-04-15T07:39:39;75.87;;;70.13;;
5710;SDS011;61291;52.524;13.422;2023-04-15T07:42:04;73.83;;;68.47;;
5710;SDS011;61291;52.524;13.422;2023-04-15T07:44:30;70.80;;;65.70;;
5710;SDS011;61291;52.524;13.422;2023-04-15T07:46:55;73.57;;;68.07;;
5710;SDS011;61291;52.524;13.422;2023-04-15T07:49:21;76.17;;;70.27;;
5710;SDS011;61291;52.524;13.422;2023-04-15T07:51:47;71.83;;;66.63;;
5710;SDS011;61291;52.524;13.422;2023-04-15T07:54:13;79.20;;;72.90;;
5710;SDS011;61291;52.524;13.422;2023-04-15T07:56:39;74.00;;;68.33;;
5710;SDS011;61291;52.524;13.422;2023-04-15T07:59:05;75.57;;;70.30;;
5710;SDS011;61291;52.524;13.422;2023-04-15T08:01:30;67.20;;;62.50;;
5710;SDS011;61291;52.524;13.422;2023-04-15T08:03:57;73.57;;;68.10;;
5710;SDS011;61291;52.524;13.422;2023-04-15T08:06:26;71.60;;;66.40;;
5710;SDS011;61291;52.524;13.422;2023-04-15T08:08:51;67.43;;;62.60;;
5710;SDS011;61291;52.524;13.422;2023-04-15T08:11:18;70.00;;;65.00;;
5710;SDS011;61291;52.524;13.422;2023-04-15T08:13:45;68.70;;;63.90;;
5710;SDS011;61291;52.524;13.422;2023-04-15T08:16:12;68.50;;;63.27;;
5710;SDS011;61291;52.524;13.422;2023-04-15T08:18:48;66.20;;;61.37;;
5710;SDS011;61291;52.524;13.422;2023-04-15T08:21:15;60.30;;;55.70;;
5710;SDS011;61291;52.524;13.422;2023-04-15T08:23:41;65.20;;;60.40;;
5710;SDS011;61291;52.524;13.422;2023-04-15T08:26:07;67.83;;;62.60;;
5710;SDS011;61291;52.524;13.422;2023-04-15T08:28:33;65.03;;;59.43;;
5710;SDS011;61291;52.524;13.422;2023-04-15T08:31:02;65.87;;;60.87;;
5710;SDS011;61291;52.524;13.422;2023-04-15T08:33:30;64.47;;;59.20;;
5710;SDS011;61291;52.524;13.422;2023-04-15T08:35:55;69.33;;;63.00;;
5710;SDS011;61291;52.524;13.422;2023-04-15T08:38:21;62.30;;;57.60;;
5710;SDS011;61291;52.524;13.422;2023-04-15T08:40:47;66.27;;;61.40;;
5710;SDS011;61291;52.524;13.422;2023-04-15T08:43:20;66.27;;;61.37;;
5710;SDS011;61291;52.524;13.422;2023-04-15T08:45:51;66.70;;;61.30;;
5710;SDS011;61291;52.524;13.422;2023-04-15T08:48:17;68.30;;;63.30;;
5710;SDS011;61291;52.524;13.422;2023-04-15T08:50:43;72.07;;;66.70;;
5710;SDS011;61291;52.524;13.422;2023-04-15T08:53:10;66.70;;;61.70;;
5710;SDS011;61291;52.524;13.422;2023-04-15T08:55:37;65.20;;;60.20;;
5710;SDS011;61291;52.524;13.422;2023-04-15T08:58:09;68.23;;;62.60;;
5710;SDS011;61291;52.524;13.422;2023-04-15T09:00:36;66.37;;;61.23;;
5710;SDS011;61291;52.524;13.422;2023-04-15T09:03:03;70.00;;;64.93;;
5710;SDS011;61291;52.524;13.422;2023-04-15T09:05:39;66.87;;;61.97;;
5710;SDS011;61291;52.524;13.422;2023-04-15T09:08:05;70.80;;;65.40;;
5710;SDS011;61291;52.524;13.422;2023-04-15T09:10:33;66.13;;;61.13;;
5710;SDS011;61291;52.524;13.422;2023-04-15T09:12:59;73.93;;;67.93;;
5710;SDS011;61291;52.524;13.422;2023-04-15T09:15:25;67.17;;;62.17;;
5710;SDS011;61291;52.524;13.422;2023-04-15T09:17:53;75.47;;;69.77;;
5710;SDS011;61291;52.524;13.422;2023-04-15T09:20:20;68.33;;;63.17;;
5710;SDS011;61291;52.524;13.422;2023-04-15T09:22:47;70.77;;;65.40;;
5710;SDS011;61291;52.524;13.422;2023-04-15T09:27:49;70.27;;;64.93;;
5710;SDS011;61291;52.524;13.422;2023-04-15T09:30:16;58.83;;;53.42;;
5710;SDS011;61291;52.524;13.422;2023-04-15T09:32:51;71.40;;;66.00;;
5710;SDS011;61291;52.524;13.422;2023-04-15T09:35:17;69.30;;;63.80;;
5710;SDS011;61291;52.524;13.422;2023-04-15T09:37:43;68.80;;;63.58;;
5710;SDS011;61291;52.524;13.422;2023-04-15T09:40:09;70.07;;;65.00;;
5710;SDS011;61291;52.524;13.422;2023-04-15T09:42:35;72.93;;;67.30;;
5710;SDS011;61291;52.524;13.422;2023-04-15T09:45:11;71.07;;;65.97;;
5710;SDS011;61291;52.524;13.422;2023-04-15T09:47:36;71.57;;;66.17;;
5710;SDS011;61291;52.524;13.422;2023-04-15T09:50:02;75.07;;;69.60;;
5710;SDS011;61291;52.524;13.422;2023-04-15T09:52:28;75.93;;;70.00;;
5710;SDS011;61291;52.524;13.422;2023-04-15T09:54:55;69.93;;;64.80;;
5710;SDS011;61291;52.524;13.422;2023-04-15T09:57:22;68.43;;;63.37;;
5710;SDS011;61291;52.524;13.422;2023-04-15T09:59:48;67.63;;;62.57;;
5710;SDS011;61291;52.524;13.422;2023-04-15T10:02:14;64.67;;;60.17;;
5710;SDS011;61291;52.524;13.422;2023-04-15T10:04:42;69.07;;;64.00;;
5710;SDS011;61291;52.524;13.422;2023-04-15T10:07:09;71.73;;;66.63;;
5710;SDS011;61291;52.524;13.422;2023-04-15T10:09:37;73.80;;;68.33;;
5710;SDS011;61291;52.524;13.422;2023-04-15T10:12:03;69.77;;;64.57;;
5710;SDS011;61291;52.524;13.422;2023-04-15T10:14:31;65.63;;;60.77;;
5710;SDS011;61291;52.524;13.422;2023-04-15T10:17:00;68.17;;;63.07;;
5710;SDS011;61291;52.524;13.422;2023-04-15T10:19:27;67.57;;;62.27;;
5710;SDS011;61291;52.524;13.422;2023-04-15T10:21:55;68.30;;;63.10;;
5710;SDS011;61291;52.524;13.422;2023-04-15T10:24:22;70.13;;;64.63;;
5710;SDS011;61291;52.524;13.422;2023-04-15T10:26:48;67.63;;;62.47;;
5710;SDS011;61291;52.524;13.422;2023-04-15T10:29:15;68.57;;;62.43;;
5710;SDS011;61291;52.524;13.422;2023-04-15T10:31:41;72.93;;;66.53;;
5710;SDS011;61291;52.524;13.422;2023-04-15T10:34:07;76.80;;;70.93;;
5710;SDS011;61291;52.524;13.422;2023-04-15T10:36:33;70.90;;;65.20;;
5710;SDS011;61291;52.524;13.422;2023-04-15T10:38:59;75.67;;;69.90;;
5710;SDS011;61291;52.524;13.422;2023-04-15T10:41:25;71.10;;;65.60;;
5710;SDS011;61291;52.524;13.422;2023-04-15T10:43:53;77.33;;;71.33;;
5710;SDS011;61291;52.524;13.422;2023-04-15T10:49:05;80.73;;;74.63;;
5710;SDS011;61291;52.524;13.422;2023-04-15T10:51:35;81.35;;;75.45;;
5710;SDS011;61291;52.524;13.422;2023-04-15T10:54:06;73.20;;;68.00;;
5710;SDS011;61291;52.524;13.422;2023-04-15T10:59:28;74.37;;;68.90;;
5710;SDS011;61291;52.524;13.422;2023-04-15T11:01:54;76.03;;;70.03;;
5710;SDS011;61291;52.524;13.422;2023-04-15T11:12:41;66.10;;;61.00;;
5710;SDS011;61291;52.524;13.422;2023-04-15T11:15:27;74.97;;;69.47;;
5710;SDS011;61291;52.524;13.422;2023-04-15T11:18:20;74.07;;;68.80;;
5710;SDS011;61291;52.524;13.422;2023-04-15T11:20:50;70.43;;;65.20;;
5710;SDS011;61291;52.524;13.422;2023-04-15T11:23:27;75.87;;;70.13;;
5710;SDS011;61291;52.524;13.422;2023-04-15T11:25:55;72.20;;;66.80;;
5710;SDS011;61291;52.524;13.422;2023-04-15T11:28:24;68.80;;;63.90;;
5710;SDS011;61291;52.524;13.422;2023-04-15T11:30:51;70.60;;;65.50;;
5710;SDS011;61291;52.524;13.422;2023-04-15T11:33:18;74.27;;;69.00;;
5710;SDS011;61291;52.524;13.422;2023-04-15T11:35:43;74.83;;;69.43;;
5710;SDS011;61291;52.524;13.422;2023-04-15T11:38:10;73.13;;;67.83;;
5710;SDS011;61291;52.524;13.422;2023-04-15T11:40:36;77.40;;;71.60;;
5710;SDS011;61291;52.524;13.422;2023-04-15T11:43:03;75.67;;;70.10;;
5710;SDS011;61291;52.524;13.422;2023-04-15T11:45:55;70.07;;;64.77;;
5710;SDS011;61291;52.524;13.422;2023-04-15T11:48:28;70.03;;;64.70;;
5710;SDS011;61291;52.524;13.422;2023-04-15T11:50:59;76.30;;;70.90;;
5710;SDS011;61291;52.524;13.422;2023-04-15T11:53:36;70.90;;;65.70;;
5710;SDS011;61291;52.524;13.422;2023-04-15T11:56:22;76.03;;;70.53;;
5710;SDS011;61291;52.524;13.422;2023-04-15T11:58:52;72.03;;;66.40;;
5710;SDS011;61291;52.524;13.422;2023-04-15T12:01:34;73.93;;;68.63;;
5710;SDS011;61291;52.524;13.422;2023-04-15T12:04:00;80.20;;;74.60;;
5710;SDS011;61291;52.524;13.422;2023-04-15T12:06:33;73.23;;;67.73;;
5710;SDS011;61291;52.524;13.422;2023-04-15T12:09:03;74.70;;;69.40;;
5710;SDS011;61291;52.524;13.422;2023-04-15T12:11:59;76.93;;;71.37;;
5710;SDS011;61291;52.524;13.422;2023-04-15T12:16:54;60.83;;;56.22;;
5710;SDS011;61291;52.524;13.422;2023-04-15T12:19:27;79.40;;;73.63;;
5710;SDS011;61291;52.524;13.422;2023-04-15T12:22:04;74.93;;;69.53;;
5710;SDS011;61291;52.524;13.422;2023-04-15T12:24:33;78.15;;;72.65;;
5710;SDS011;61291;52.524;13.422;2023-04-15T12:27:06;75.37;;;69.97;;
5710;SDS011;61291;52.524;13.422;2023-04-15T12:29:36;76.80;;;71.50;;
5710;SDS011;61291;52.524;13.422;2023-04-15T12:32:10;83.03;;;76.97;;
5710;SDS011;61291;52.524;13.422;2023-04-15T12:34:41;77.37;;;71.83;;
5710;SDS011;61291;52.524;13.422;2023-04-15T12:37:14;80.47;;;74.77;;
5710;SDS011;61291;52.524;13.422;2023-04-15T12:39:40;77.20;;;71.30;;
5710;SDS011;61291;52.524;13.422;2023-04-15T12:42:07;71.63;;;65.93;;
5710;SDS011;61291;52.524;13.422;2023-04-15T12:44:33;71.13;;;66.20;;
5710;SDS011;61291;52.524;13.422;2023-04-15T12:47:00;72.17;;;66.87;;
5710;SDS011;61291;52.524;13.422;2023-04-15T12:49:26;76.50;;;70.50;;
5710;SDS011;61291;52.524;13.422;2023-04-15T12:51:54;71.20;;;66.10;;
5710;SDS011;61291;52.524;13.422;2023-04-15T12:54:20;71.43;;;66.27;;
5710;SDS011;61291;52.524;13.422;2023-04-15T12:56:47;70.07;;;64.90;;
5710;SDS011;61291;52.524;13.422;2023-04-15T12:59:14;72.20;;;66.90;;
5710;SDS011;61291;52.524;13.422;2023-04-15T13:01:41;71.93;;;66.70;;
5710;SDS011;61291;52.524;13.422;2023-04-15T13:04:07;70.47;;;65.40;;
5710;SDS011;61291;52.524;13.422;2023-04-15T13:06:32;66.97;;;62.20;;
5710;SDS011;61291;52.524;13.422;2023-04-15T13:08:58;72.10;;;67.00;;
5710;SDS011;61291;52.524;13.422;2023-04-15T13:11:25;72.80;;;67.60;;
5710;SDS011;61291;52.524;13.422;2023-04-15T13:13:51;69.27;;;64.20;;
5710;SDS011;61291;52.524;13.422;2023-04-15T13:16:16;70.87;;;65.87;;
5710;SDS011;61291;52.524;13.422;2023-04-15T13:18:42;70.67;;;65.87;;
5710;SDS011;61291;52.524;13.422;2023-04-15T13:21:09;58.10;;;53.90;;
5710;SDS011;61291;52.524;13.422;2023-04-15T13:23:35;64.63;;;59.83;;
5710;SDS011;61291;52.524;13.422;2023-04-15T13:26:01;61.03;;;56.70;;
5710;SDS011;61291;52.524;13.422;2023-04-15T13:28:26;73.27;;;68.23;;
5710;SDS011;61291;52.524;13.422;2023-04-15T13:30:51;69.00;;;64.10;;
5710;SDS011;61291;52.524;13.422;2023-04-15T13:33:17;65.87;;;61.17;;
5710;SDS011;61291;52.524;13.422;2023-04-15T13:35:42;65.60;;;61.17;;
5710;SDS011;61291;52.524;13.422;2023-04-15T13:38:08;66.90;;;61.90;;
5710;SDS011;61291;52.524;13.422;2023-04-15T13:40:33;63.63;;;59.23;;
5710;SDS011;61291;52.524;13.422;2023-04-15T13:42:59;66.03;;;61.40;;
5710;SDS011;61291;52.524;13.422;2023-04-15T13:45:26;66.17;;;61.63;;
5710;SDS011;61291;52.524;13.422;2023-04-15T13:47:51;67.83;;;63.30;;
5710;SDS011;61291;52.524;13.422;2023-04-15T13:50:17;71.43;;;66.23;;
5710;SDS011;61291;52.524;13.422;2023-04-15T13:52:43;51.60;;;47.90;;
5710;SDS011;61291;52.524;13.422;2023-04-15T13:55:08;64.07;;;59.63;;
5710;SDS011;61291;52.524;13.422;2023-04-15T13:57:34;70.30;;;65.67;;
5710;SDS011;61291;52.524;13.422;2023-04-15T14:00:00;67.70;;;63.20;;
5710;SDS011;61291;52.524;13.422;2023-04-15T14:02:26;63.57;;;59.17;;
5710;SDS011;61291;52.524;13.422;2023-04-15T14:04:52;64.33;;;60.10;;
5710;SDS011;61291;52.524;13.422;2023-04-15T14:07:17;66.50;;;62.30;;
5710;SDS011;61291;52.524;13.422;2023-04-15T14:09:42;61.33;;;57.33;;
5710;SDS011;61291;52.524;13.422;2023-04-15T14:12:08;67.13;;;62.63;;
5710;SDS011;61291;52.524;13.422;2023-04-15T14:14:35;71.10;;;66.37;;
5710;SDS011;61291;52.524;13.422;2023-04-15T14:17:01;63.63;;;59.43;;
5710;SDS011;61291;52.524;13.422;2023-04-15T14:19:28;66.00;;;61.40;;
5710;SDS011;61291;52.524;13.422;2023-04-15T14:21:54;61.17;;;57.00;;
5710;SDS011;61291;52.524;13.422;2023-04-15T14:24:20;59.53;;;55.47;;
5710;SDS011;61291;52.524;13.422;2023-04-15T14:26:45;63.40;;;59.10;;
5710;SDS011;61291;52.524;13.422;2023-04-15T14:29:11;60.80;;;56.50;;
5710;SDS011;61291;52.524;13.422;2023-04-15T14:31:36;61.70;;;57.50;;
5710;SDS011;61291;52.524;13.422;2023-04-15T14:34:02;63.33;;;59.10;;
5710;SDS011;61291;52.524;13.422;2023-04-15T14:36:27;56.67;;;52.87;;
5710;SDS011;61291;52.524;13.422;2023-04-15T14:38:53;57.97;;;54.23;;
5710;SDS011;61291;52.524;13.422;2023-04-15T14:41:18;60.77;;;56.63;;